Time;durP1;ratioP1;P1;durP2;ratioP2;P2;SDS_P1;SDS_P2;PMS_P1;PMS_P2;Temp;Humidity;BMP_temperature;BMP_pressure;BME280_temperature;BME280_humidity;BME280_pressure;Samples;Min_cycle;Max_cycle;Signal;HPM_P1;HPM_P2
2023/03/28 00:00:40;;;;;;;5.40;2.90;;;;;;;-128.00;-1.00;-1.00;18913;293;7504524;-33
2023/03/28 00:03:07;;;;;;;4.90;1.90;;;;;;;-128.00;-1.00;-1.00;18907;293;7505393;-34
2023/03/28 00:05:33;;;;;;;8.30;3.10;;;;;;;-128.00;-1.00;-1.00;18912;293;7505211;-30
2023/03/28 00:07:59;;;;;;;7.60;1.70;;;;;;;-128.00;-1.00;-1.00;18914;293;7504717;-30
2023/03/28 00:10:26;;;;;;;9.40;3.50;;;;;;;-128.00;-1.00;-1.00;18936;293;7504354;-32
2023/03/28 00:12:52;;;;;;;6.30;3.30;;;;;;;-128.00;-1.00;-1.00;18504;293;7506125;-30
2023/03/28 00:15:18;;;;;;;10.50;3.00;;;;;;;-128.00;-1.00;-1.00;18895;293;7504210;-33
2023/03/28 00:17:44;;;;;;;3.50;2.20;;;;;;;-128.00;-1.00;-1.00;18918;333;7504776;-31
2023/03/28 00:20:13;;;;;;;7.10;2.80;;;;;;;-128.00;-1.00;-1.00;18900;293;7504586;-33
2023/03/28 00:22:38;;;;;;;4.00;1.70;;;;;;;-128.00;-1.00;-1.00;18533;293;7505584;-30
2023/03/28 00:25:05;;;;;;;6.20;3.10;;;;;;;-128.00;-1.00;-1.00;18532;294;7506486;-29
2023/03/28 00:27:32;;;;;;;8.80;4.00;;;;;;;-128.00;-1.00;-1.00;18508;293;7506059;-29
2023/03/28 00:29:59;;;;;;;4.80;2.80;;;;;;;-128.00;-1.00;-1.00;18483;293;7505271;-33
2023/03/28 00:32:24;;;;;;;9.90;5.10;;;;;;;-128.00;-1.00;-1.00;18505;293;7504445;-30
2023/03/28 00:34:50;;;;;;;4.90;3.40;;;;;;;-128.00;-1.00;-1.00;18511;293;7504382;-30
2023/03/28 00:37:16;;;;;;;11.50;4.10;;;;;;;-128.00;-1.00;-1.00;18515;293;7506221;-29
2023/03/28 00:39:48;;;;;;;3.30;2.80;;;;;;;-128.00;-1.00;-1.00;18522;293;7504225;-29
2023/03/28 00:42:16;;;;;;;5.00;2.80;;;;;;;-128.00;-1.00;-1.00;18503;293;7505372;-33
2023/03/28 00:44:50;;;;;;;5.20;2.60;;;;;;;-128.00;-1.00;-1.00;18502;333;7506344;-30
2023/03/28 00:47:35;;;;;;;9.00;4.30;;;;;;;-128.00;-1.00;-1.00;18495;293;7504259;-30
2023/03/28 00:50:18;;;;;;;9.40;2.80;;;;;;;-128.00;-1.00;-1.00;18504;288;7504492;-30
2023/03/28 00:52:53;;;;;;;8.00;5.10;;;;;;;-128.00;-1.00;-1.00;18503;293;7505146;-30
2023/03/28 00:55:24;;;;;;;8.80;4.70;;;;;;;-128.00;-1.00;-1.00;18501;293;7504610;-30
2023/03/28 00:57:50;;;;;;;7.40;3.70;;;;;;;-128.00;-1.00;-1.00;18525;293;7504567;-30
2023/03/28 01:00:17;;;;;;;8.50;4.30;;;;;;;-128.00;-1.00;-1.00;18530;294;7504930;-34
2023/03/28 01:02:49;;;;;;;8.50;4.30;;;;;;;-128.00;-1.00;-1.00;18471;294;7506193;-34
2023/03/28 01:05:16;;;;;;;5.20;2.20;;;;;;;-128.00;-1.00;-1.00;18510;294;7504691;-34
2023/03/28 01:07:44;;;;;;;4.50;2.40;;;;;;;-128.00;-1.00;-1.00;18500;293;7506745;-30
2023/03/28 01:10:10;;;;;;;3.10;0.70;;;;;;;-128.00;-1.00;-1.00;18479;294;7506125;-30
2023/03/28 01:12:36;;;;;;;7.70;3.60;;;;;;;-128.00;-1.00;-1.00;18509;282;7504831;-29
2023/03/28 01:15:02;;;;;;;5.30;3.10;;;;;;;-128.00;-1.00;-1.00;18530;284;7504697;-29
2023/03/28 01:17:29;;;;;;;6.20;3.20;;;;;;;-128.00;-1.00;-1.00;18509;294;7505984;-35
2023/03/28 01:20:12;;;;;;;9.10;3.50;;;;;;;-128.00;-1.00;-1.00;18513;293;7504658;-29
2023/03/28 01:23:10;;;;;;;4.30;2.50;;;;;;;-128.00;-1.00;-1.00;18491;288;7506816;-30
2023/03/28 01:25:59;;;;;;;10.00;2.40;;;;;;;-128.00;-1.00;-1.00;18530;294;7504680;-34
2023/03/28 01:28:50;;;;;;;9.50;3.40;;;;;;;-128.00;-1.00;-1.00;18546;293;7506277;-30
2023/03/28 01:31:32;;;;;;;9.90;3.40;;;;;;;-128.00;-1.00;-1.00;18498;293;7506469;-34
2023/03/28 01:34:23;;;;;;;6.70;3.50;;;;;;;-128.00;-1.00;-1.00;18498;293;7505248;-34
2023/03/28 01:36:57;;;;;;;7.10;2.70;;;;;;;-128.00;-1.00;-1.00;18488;293;7504475;-33
2023/03/28 01:39:32;;;;;;;2.90;1.40;;;;;;;-128.00;-1.00;-1.00;18521;297;7505932;-29
2023/03/28 01:42:13;;;;;;;4.90;2.00;;;;;;;-128.00;-1.00;-1.00;18503;293;7504979;-33
2023/03/28 01:45:07;;;;;;;9.80;2.50;;;;;;;-128.00;-1.00;-1.00;18484;293;7504822;-30
2023/03/28 01:47:37;;;;;;;10.90;2.90;;;;;;;-128.00;-1.00;-1.00;18501;301;7504690;-34
2023/03/28 01:50:12;;;;;;;4.90;2.90;;;;;;;-128.00;-1.00;-1.00;18512;293;7506021;-33
2023/03/28 01:53:02;;;;;;;4.80;2.80;;;;;;;-128.00;-1.00;-1.00;18485;293;7505968;-33
2023/03/28 01:55:35;;;;;;;6.00;2.50;;;;;;;-128.00;-1.00;-1.00;18503;293;7505108;-34
2023/03/28 01:58:25;;;;;;;7.30;3.10;;;;;;;-128.00;-1.00;-1.00;18467;319;7504694;-34
2023/03/28 02:01:06;;;;;;;5.30;2.40;;;;;;;-128.00;-1.00;-1.00;18484;298;7504617;-34
2023/03/28 02:03:34;;;;;;;5.00;2.70;;;;;;;-128.00;-1.00;-1.00;18522;293;7506731;-34
2023/03/28 02:06:00;;;;;;;2.80;2.10;;;;;;;-128.00;-1.00;-1.00;18505;293;7504986;-34
2023/03/28 02:08:28;;;;;;;5.30;2.30;;;;;;;-128.00;-1.00;-1.00;18499;293;7505994;-30
2023/03/28 02:10:53;;;;;;;2.20;1.10;;;;;;;-128.00;-1.00;-1.00;18495;294;7504783;-29
2023/03/28 02:13:27;;;;;;;4.50;2.30;;;;;;;-128.00;-1.00;-1.00;18468;295;7504552;-34
2023/03/28 02:15:57;;;;;;;10.90;1.90;;;;;;;-128.00;-1.00;-1.00;18531;294;7504707;-30
2023/03/28 02:18:28;;;;;;;4.30;2.00;;;;;;;-128.00;-1.00;-1.00;18535;293;7504396;-30
2023/03/28 02:20:56;;;;;;;6.20;2.90;;;;;;;-128.00;-1.00;-1.00;18520;294;7504366;-29
2023/03/28 02:23:25;;;;;;;4.40;2.70;;;;;;;-128.00;-1.00;-1.00;18511;293;7505882;-31
2023/03/28 02:25:51;;;;;;;3.00;2.50;;;;;;;-128.00;-1.00;-1.00;18485;293;7504092;-35
2023/03/28 02:28:18;;;;;;;5.30;2.20;;;;;;;-128.00;-1.00;-1.00;18910;293;7505581;-35
2023/03/28 02:30:44;;;;;;;1.90;0.60;;;;;;;-128.00;-1.00;-1.00;18494;294;7504706;-29
2023/03/28 02:33:29;;;;;;;5.60;3.20;;;;;;;-128.00;-1.00;-1.00;18502;293;7504805;-30
2023/03/28 02:36:05;;;;;;;3.20;2.10;;;;;;;-128.00;-1.00;-1.00;18467;294;7504792;-33
2023/03/28 02:38:45;;;;;;;2.50;0.90;;;;;;;-128.00;-1.00;-1.00;18478;288;7504452;-34
2023/03/28 02:41:30;;;;;;;4.20;1.90;;;;;;;-128.00;-1.00;-1.00;18507;294;7505057;-34
2023/03/28 02:44:19;;;;;;;11.60;2.60;;;;;;;-128.00;-1.00;-1.00;18525;293;7507290;-33
2023/03/28 02:46:54;;;;;;;2.30;1.50;;;;;;;-128.00;-1.00;-1.00;18480;294;7506701;-29
2023/03/28 02:49:50;;;;;;;3.60;2.10;;;;;;;-128.00;-1.00;-1.00;18508;296;7504231;-30
2023/03/28 02:52:33;;;;;;;4.20;2.10;;;;;;;-128.00;-1.00;-1.00;18476;293;7504315;-30
2023/03/28 02:55:13;;;;;;;2.30;1.80;;;;;;;-128.00;-1.00;-1.00;18505;294;7507043;-34
2023/03/28 02:57:42;;;;;;;3.00;1.80;;;;;;;-128.00;-1.00;-1.00;18488;293;7505103;-34
2023/03/28 03:00:14;;;;;;;2.60;1.40;;;;;;;-128.00;-1.00;-1.00;18478;294;7505889;-34
2023/03/28 03:02:44;;;;;;;3.90;2.60;;;;;;;-128.00;-1.00;-1.00;18499;294;7504094;-30
2023/03/28 03:05:10;;;;;;;5.20;3.40;;;;;;;-128.00;-1.00;-1.00;18486;293;7506321;-34
2023/03/28 03:07:36;;;;;;;2.50;0.90;;;;;;;-128.00;-1.00;-1.00;18482;339;7505891;-33
2023/03/28 03:10:06;;;;;;;4.80;3.00;;;;;;;-128.00;-1.00;-1.00;18491;294;7505057;-29
2023/03/28 03:12:32;;;;;;;4.10;1.70;;;;;;;-128.00;-1.00;-1.00;18499;294;7504664;-34
2023/03/28 03:14:59;;;;;;;1.80;1.20;;;;;;;-128.00;-1.00;-1.00;18497;293;7504403;-30
2023/03/28 03:17:27;;;;;;;2.70;2.40;;;;;;;-128.00;-1.00;-1.00;18517;293;7504621;-30
2023/03/28 03:19:52;;;;;;;2.40;2.20;;;;;;;-128.00;-1.00;-1.00;18468;334;7505819;-33
2023/03/28 03:22:18;;;;;;;3.70;2.10;;;;;;;-128.00;-1.00;-1.00;18504;293;7506143;-31
2023/03/28 03:24:45;;;;;;;2.30;1.30;;;;;;;-128.00;-1.00;-1.00;18518;293;7505987;-34
2023/03/28 03:27:11;;;;;;;1.70;1.10;;;;;;;-128.00;-1.00;-1.00;18478;293;7504518;-34
2023/03/28 03:29:36;;;;;;;9.00;3.00;;;;;;;-128.00;-1.00;-1.00;18470;294;7504407;-30
2023/03/28 03:32:03;;;;;;;5.90;2.20;;;;;;;-128.00;-1.00;-1.00;18909;294;7504655;-30
2023/03/28 03:34:32;;;;;;;6.60;1.80;;;;;;;-128.00;-1.00;-1.00;18889;293;7505952;-33
2023/03/28 03:36:59;;;;;;;2.30;1.20;;;;;;;-128.00;-1.00;-1.00;18492;281;7504558;-34
2023/03/28 03:39:24;;;;;;;3.50;1.70;;;;;;;-128.00;-1.00;-1.00;18491;298;7504991;-31
2023/03/28 03:41:50;;;;;;;2.30;1.30;;;;;;;-128.00;-1.00;-1.00;18494;293;7506529;-34
2023/03/28 03:44:16;;;;;;;3.80;2.20;;;;;;;-128.00;-1.00;-1.00;18499;293;7505758;-29
2023/03/28 03:46:42;;;;;;;3.00;1.40;;;;;;;-128.00;-1.00;-1.00;18905;294;7505845;-30
2023/03/28 03:49:09;;;;;;;2.20;1.40;;;;;;;-128.00;-1.00;-1.00;18892;294;7504335;-34
2023/03/28 03:51:35;;;;;;;6.60;3.10;;;;;;;-128.00;-1.00;-1.00;18488;294;7505799;-34
2023/03/28 03:54:00;;;;;;;2.30;0.90;;;;;;;-128.00;-1.00;-1.00;18501;293;7506813;-30
2023/03/28 03:56:26;;;;;;;3.50;2.30;;;;;;;-128.00;-1.00;-1.00;18885;293;7504295;-30
2023/03/28 03:58:54;;;;;;;3.30;1.50;;;;;;;-128.00;-1.00;-1.00;18532;293;7504383;-33
2023/03/28 04:01:20;;;;;;;0.70;0.60;;;;;;;-128.00;-1.00;-1.00;18501;294;7505660;-34
2023/03/28 04:03:46;;;;;;;4.20;1.90;;;;;;;-128.00;-1.00;-1.00;18492;293;7505025;-30
2023/03/28 04:06:12;;;;;;;4.00;1.70;;;;;;;-128.00;-1.00;-1.00;18500;293;7506359;-35
2023/03/28 04:08:38;;;;;;;1.30;0.90;;;;;;;-128.00;-1.00;-1.00;18494;293;7504713;-30
2023/03/28 04:11:04;;;;;;;1.80;1.30;;;;;;;-128.00;-1.00;-1.00;18903;285;7504359;-34
2023/03/28 04:13:30;;;;;;;3.10;1.20;;;;;;;-128.00;-1.00;-1.00;18505;294;7504353;-31
2023/03/28 04:15:56;;;;;;;4.20;1.60;;;;;;;-128.00;-1.00;-1.00;18493;294;7505664;-29
2023/03/28 04:18:22;;;;;;;2.00;1.40;;;;;;;-128.00;-1.00;-1.00;18903;294;7505183;-33
2023/03/28 04:20:52;;;;;;;2.10;1.40;;;;;;;-128.00;-1.00;-1.00;18912;286;7504629;-33
2023/03/28 04:23:19;;;;;;;1.50;1.10;;;;;;;-128.00;-1.00;-1.00;18533;293;7504228;-35
2023/03/28 04:25:48;;;;;;;4.30;1.40;;;;;;;-128.00;-1.00;-1.00;18501;293;7505162;-29
2023/03/28 04:28:15;;;;;;;4.00;1.30;;;;;;;-128.00;-1.00;-1.00;18507;293;7506463;-30
2023/03/28 04:30:42;;;;;;;1.70;1.50;;;;;;;-128.00;-1.00;-1.00;18507;293;7506275;-33
2023/03/28 04:33:08;;;;;;;1.40;1.30;;;;;;;-128.00;-1.00;-1.00;18491;293;7504115;-34
2023/03/28 04:35:34;;;;;;;8.90;1.10;;;;;;;-128.00;-1.00;-1.00;18472;294;7506010;-33
2023/03/28 05:16:29;;;;;;;3.20;2.30;;;;;;;-102.72;19.20;19818.37;43486;295;7504156;-34
2023/03/28 05:18:55;;;;;;;3.10;1.80;;;;;;;-128.00;-1.00;-1.00;18541;298;7504489;-30
2023/03/28 05:21:22;;;;;;;1.50;0.80;;;;;;;-128.00;-1.00;-1.00;18849;321;7504564;-30
2023/03/28 05:23:48;;;;;;;2.40;1.20;;;;;;;-128.00;-1.00;-1.00;18876;295;7505492;-29
2023/03/28 05:26:15;;;;;;;2.50;1.40;;;;;;;-128.00;-1.00;-1.00;18460;295;7506365;-30
2023/03/28 05:28:40;;;;;;;1.40;1.00;;;;;;;-128.00;-1.00;-1.00;18470;295;7504334;-29
2023/03/28 05:31:07;;;;;;;3.70;1.20;;;;;;;-128.00;-1.00;-1.00;18480;295;7504285;-35
2023/03/28 05:33:33;;;;;;;3.60;1.20;;;;;;;-128.00;-1.00;-1.00;18506;295;7504802;-31
2023/03/28 05:35:59;;;;;;;2.90;1.10;;;;;;;-128.00;-1.00;-1.00;18481;295;7505838;-34
2023/03/28 05:38:25;;;;;;;2.00;1.20;;;;;;;-128.00;-1.00;-1.00;18459;347;7504204;-33
2023/03/28 05:40:52;;;;;;;1.90;1.00;;;;;;;-128.00;-1.00;-1.00;18469;295;7506325;-33
2023/03/28 05:43:17;;;;;;;1.90;0.90;;;;;;;-128.00;-1.00;-1.00;18497;295;7505136;-29
2023/03/28 05:45:43;;;;;;;3.10;0.80;;;;;;;-128.00;-1.00;-1.00;18458;287;7504948;-30
2023/03/28 05:48:09;;;;;;;2.20;1.10;;;;;;;-128.00;-1.00;-1.00;18462;295;7504789;-29
2023/03/28 05:50:35;;;;;;;2.00;0.80;;;;;;;-128.00;-1.00;-1.00;18459;295;7504882;-30
2023/03/28 05:53:00;;;;;;;1.50;0.90;;;;;;;-128.00;-1.00;-1.00;18498;295;7505453;-33
2023/03/28 05:55:26;;;;;;;4.60;0.70;;;;;;;-128.00;-1.00;-1.00;18841;313;7504920;-31
2023/03/28 05:57:53;;;;;;;2.30;0.60;;;;;;;-128.00;-1.00;-1.00;18874;295;7504500;-33
2023/03/28 06:00:19;;;;;;;2.10;0.50;;;;;;;-128.00;-1.00;-1.00;18872;299;7505616;-33
2023/03/28 06:02:45;;;;;;;1.30;0.70;;;;;;;-128.00;-1.00;-1.00;18884;288;7506820;-34
2023/03/28 06:05:12;;;;;;;0.50;0.30;;;;;;;-128.00;-1.00;-1.00;18875;287;7504798;-31
2023/03/28 06:07:38;;;;;;;1.20;0.70;;;;;;;-128.00;-1.00;-1.00;18465;297;7506555;-33
2023/03/28 06:10:05;;;;;;;1.70;0.40;;;;;;;-128.00;-1.00;-1.00;18489;295;7505328;-30
2023/03/28 06:12:31;;;;;;;1.30;0.60;;;;;;;-128.00;-1.00;-1.00;18467;295;7504425;-30
2023/03/28 06:14:57;;;;;;;3.90;0.70;;;;;;;-128.00;-1.00;-1.00;18471;337;7504837;-33
2023/03/28 06:17:23;;;;;;;1.20;0.40;;;;;;;-128.00;-1.00;-1.00;18476;289;7506371;-30
2023/03/28 06:19:50;;;;;;;1.60;0.60;;;;;;;-128.00;-1.00;-1.00;18485;295;7505860;-30
2023/03/28 06:22:16;;;;;;;2.00;0.40;;;;;;;-128.00;-1.00;-1.00;18454;296;7504815;-33
2023/03/28 06:24:41;;;;;;;3.00;1.00;;;;;;;-128.00;-1.00;-1.00;18473;346;7506154;-32
2023/03/28 06:27:07;;;;;;;2.30;0.70;;;;;;;-128.00;-1.00;-1.00;18883;340;7504681;-30
2023/03/28 06:29:34;;;;;;;4.20;0.90;;;;;;;-128.00;-1.00;-1.00;18876;337;7504403;-33
2023/03/28 06:32:00;;;;;;;2.00;0.70;;;;;;;-128.00;-1.00;-1.00;18869;289;7505036;-33
2023/03/28 06:34:26;;;;;;;3.30;0.60;;;;;;;-128.00;-1.00;-1.00;18892;296;7504400;-29
2023/03/28 06:36:52;;;;;;;1.00;0.60;;;;;;;-128.00;-1.00;-1.00;18852;296;7505625;-34
2023/03/28 06:39:19;;;;;;;1.20;0.80;;;;;;;-128.00;-1.00;-1.00;18878;296;7505621;-33
2023/03/28 06:41:45;;;;;;;1.20;1.10;;;;;;;-128.00;-1.00;-1.00;18861;297;7505586;-29
2023/03/28 06:44:11;;;;;;;3.20;0.90;;;;;;;-128.00;-1.00;-1.00;18908;288;7504192;-29
2023/03/28 06:46:37;;;;;;;1.40;0.80;;;;;;;-128.00;-1.00;-1.00;18864;296;7504488;-31
2023/03/28 06:49:05;;;;;;;3.00;0.90;;;;;;;-128.00;-1.00;-1.00;18893;348;7505829;-30
2023/03/28 06:51:31;;;;;;;1.40;0.80;;;;;;;-128.00;-1.00;-1.00;18455;288;7506040;-35
2023/03/28 06:53:56;;;;;;;2.00;0.80;;;;;;;-128.00;-1.00;-1.00;18465;296;7506061;-34
2023/03/28 06:56:23;;;;;;;4.50;1.10;;;;;;;-128.00;-1.00;-1.00;18865;295;7504903;-35
2023/03/28 06:58:49;;;;;;;1.70;1.20;;;;;;;-128.00;-1.00;-1.00;18891;295;7506013;-32
2023/03/28 07:01:15;;;;;;;2.50;1.50;;;;;;;-128.00;-1.00;-1.00;18846;295;7505093;-29
2023/03/28 07:03:41;;;;;;;1.10;0.60;;;;;;;-128.00;-1.00;-1.00;18460;348;7504845;-32
2023/03/28 07:06:08;;;;;;;0.40;0.20;;;;;;;-128.00;-1.00;-1.00;18519;296;7504407;-35
2023/03/28 07:08:34;;;;;;;1.90;1.30;;;;;;;-128.00;-1.00;-1.00;18471;296;7504621;-31
2023/03/28 07:10:59;;;;;;;0.50;0.50;;;;;;;-128.00;-1.00;-1.00;18472;348;7504466;-35
2023/03/28 07:13:25;;;;;;;1.00;0.70;;;;;;;-128.00;-1.00;-1.00;18488;296;7504308;-30
2023/03/28 07:16:04;;;;;;;0.90;0.80;;;;;;;-128.00;-1.00;-1.00;18461;295;7504702;-30
2023/03/28 07:18:30;;;;;;;1.60;1.00;;;;;;;-128.00;-1.00;-1.00;18468;295;7505837;-31
2023/03/28 07:20:56;;;;;;;1.70;0.90;;;;;;;-128.00;-1.00;-1.00;18486;288;7505982;-31
2023/03/28 07:23:21;;;;;;;2.80;0.80;;;;;;;-128.00;-1.00;-1.00;18465;296;7504399;-33
2023/03/28 07:25:47;;;;;;;1.10;0.80;;;;;;;-128.00;-1.00;-1.00;18864;295;7505207;-34
2023/03/28 07:28:14;;;;;;;1.50;0.80;;;;;;;-128.00;-1.00;-1.00;18866;298;7504573;-34
2023/03/28 07:30:40;;;;;;;3.10;0.80;;;;;;;-128.00;-1.00;-1.00;18878;295;7504380;-34
2023/03/28 07:33:06;;;;;;;2.20;1.30;;;;;;;-128.00;-1.00;-1.00;18483;288;7505173;-33
2023/03/28 07:35:32;;;;;;;2.40;0.80;;;;;;;-128.00;-1.00;-1.00;18482;295;7504129;-30
2023/03/28 07:37:58;;;;;;;2.10;0.60;;;;;;;-128.00;-1.00;-1.00;18460;295;7506270;-33
2023/03/28 07:40:24;;;;;;;1.10;1.00;;;;;;;-128.00;-1.00;-1.00;18467;295;7505491;-29
2023/03/28 07:42:49;;;;;;;3.80;1.20;;;;;;;-128.00;-1.00;-1.00;18488;288;7504603;-34
2023/03/28 07:45:15;;;;;;;1.70;0.90;;;;;;;-128.00;-1.00;-1.00;18469;288;7506560;-33
2023/03/28 07:47:41;;;;;;;1.30;0.40;;;;;;;-128.00;-1.00;-1.00;18464;288;7506018;-33
2023/03/28 07:50:07;;;;;;;0.60;0.50;;;;;;;-128.00;-1.00;-1.00;18446;296;7505257;-33
2023/03/28 07:52:33;;;;;;;1.70;0.70;;;;;;;-128.00;-1.00;-1.00;18466;297;7504223;-32
2023/03/28 07:54:59;;;;;;;4.10;0.50;;;;;;;-128.00;-1.00;-1.00;18503;296;7504473;-30
2023/03/28 07:57:25;;;;;;;2.10;1.10;;;;;;;-128.00;-1.00;-1.00;18466;296;7504697;-33
2023/03/28 07:59:51;;;;;;;1.50;1.10;;;;;;;-128.00;-1.00;-1.00;18480;296;7505062;-30
2023/03/28 08:02:16;;;;;;;1.60;0.80;;;;;;;-128.00;-1.00;-1.00;18466;295;7505091;-29
2023/03/28 08:04:42;;;;;;;1.20;0.80;;;;;;;-128.00;-1.00;-1.00;18482;295;7504281;-30
2023/03/28 08:07:09;;;;;;;2.50;0.60;;;;;;;-128.00;-1.00;-1.00;18454;312;7504410;-30
2023/03/28 08:09:35;;;;;;;0.80;0.60;;;;;;;-128.00;-1.00;-1.00;18474;295;7505209;-31
2023/03/28 08:12:01;;;;;;;6.50;0.70;;;;;;;-128.00;-1.00;-1.00;18476;288;7505136;-30
2023/03/28 08:14:26;;;;;;;1.40;0.60;;;;;;;-128.00;-1.00;-1.00;18481;295;7505842;-29
2023/03/28 08:16:52;;;;;;;1.70;0.60;;;;;;;-128.00;-1.00;-1.00;18482;296;7504672;-29
2023/03/28 08:19:18;;;;;;;1.70;0.70;;;;;;;-128.00;-1.00;-1.00;18490;288;7504302;-30
2023/03/28 08:21:44;;;;;;;1.80;0.60;;;;;;;-128.00;-1.00;-1.00;18461;288;7504515;-29
2023/03/28 08:24:11;;;;;;;1.70;0.70;;;;;;;-128.00;-1.00;-1.00;18847;295;7504992;-33
2023/03/28 08:26:37;;;;;;;1.30;0.60;;;;;;;-128.00;-1.00;-1.00;18877;312;7506074;-30
2023/03/28 08:29:04;;;;;;;1.40;0.80;;;;;;;-128.00;-1.00;-1.00;18481;296;7504550;-33
2023/03/28 08:31:29;;;;;;;5.30;0.40;;;;;;;-128.00;-1.00;-1.00;18497;296;7505043;-31
2023/03/28 08:33:56;;;;;;;0.80;0.70;;;;;;;-128.00;-1.00;-1.00;18463;288;7504568;-30
2023/03/28 08:36:23;;;;;;;0.60;0.40;;;;;;;-128.00;-1.00;-1.00;18487;288;7504715;-30
2023/03/28 08:38:49;;;;;;;1.30;0.70;;;;;;;-128.00;-1.00;-1.00;18467;288;7506160;-30
2023/03/28 08:41:33;;;;;;;3.00;1.00;;;;;;;-128.00;-1.00;-1.00;18455;297;7504560;-30
2023/03/28 08:44:21;;;;;;;0.70;0.30;;;;;;;-128.00;-1.00;-1.00;18486;296;7504713;-33
2023/03/28 08:46:49;;;;;;;3.70;0.70;;;;;;;-128.00;-1.00;-1.00;18485;296;7506378;-34
2023/03/28 08:49:16;;;;;;;1.40;0.40;;;;;;;-128.00;-1.00;-1.00;18461;296;7506187;-30
2023/03/28 08:51:45;;;;;;;1.10;0.70;;;;;;;-128.00;-1.00;-1.00;18468;348;7505819;-30
2023/03/28 08:54:25;;;;;;;1.40;0.50;;;;;;;-128.00;-1.00;-1.00;18454;297;7506559;-34
2023/03/28 08:56:57;;;;;;;1.20;0.30;;;;;;;-128.00;-1.00;-1.00;18469;288;7504820;-33
2023/03/28 08:59:46;;;;;;;1.60;0.90;;;;;;;-128.00;-1.00;-1.00;18471;296;7504628;-33
2023/03/28 09:02:20;;;;;;;3.00;0.80;;;;;;;-128.00;-1.00;-1.00;18486;296;7505106;-29
2023/03/28 09:04:45;;;;;;;1.00;0.60;;;;;;;-128.00;-1.00;-1.00;18474;288;7504312;-34
2023/03/28 09:07:35;;;;;;;1.00;0.60;;;;;;;-128.00;-1.00;-1.00;18879;296;7505007;-31
2023/03/28 09:10:22;;;;;;;1.40;0.60;;;;;;;-128.00;-1.00;-1.00;18486;296;7506075;-30
2023/03/28 09:13:05;;;;;;;1.20;0.20;;;;;;;-128.00;-1.00;-1.00;18451;297;7504868;-30
2023/03/28 09:15:40;;;;;;;0.40;0.20;;;;;;;-128.00;-1.00;-1.00;18469;296;7504336;-30
2023/03/28 09:18:22;;;;;;;1.20;0.60;;;;;;;-128.00;-1.00;-1.00;18491;341;7506321;-30
2023/03/28 09:20:55;;;;;;;13.70;0.90;;;;;;;-128.00;-1.00;-1.00;18475;296;7504585;-33
2023/03/28 09:23:40;;;;;;;5.60;2.60;;;;;;;-128.00;-1.00;-1.00;18494;296;7505803;-33
2023/03/28 09:26:10;;;;;;;15.40;2.50;;;;;;;-128.00;-1.00;-1.00;18492;285;7504576;-30
2023/03/28 09:28:51;;;;;;;12.30;5.40;;;;;;;-128.00;-1.00;-1.00;18453;285;7505954;-29
2023/03/28 09:31:18;;;;;;;9.50;3.60;;;;;;;-128.00;-1.00;-1.00;18472;288;7504912;-33
2023/03/28 09:33:46;;;;;;;6.70;4.20;;;;;;;-128.00;-1.00;-1.00;18484;288;7504380;-34
2023/03/28 09:36:14;;;;;;;4.50;1.60;;;;;;;-128.00;-1.00;-1.00;18466;312;7504347;-28
2023/03/28 09:38:59;;;;;;;1.50;0.90;;;;;;;-128.00;-1.00;-1.00;18472;296;7505843;-33
2023/03/28 09:41:28;;;;;;;4.60;3.50;;;;;;;-128.00;-1.00;-1.00;18480;347;7504370;-33
2023/03/28 09:43:56;;;;;;;2.90;2.40;;;;;;;-128.00;-1.00;-1.00;18471;297;7505802;-35
2023/03/28 09:46:28;;;;;;;0.90;0.60;;;;;;;-128.00;-1.00;-1.00;18459;297;7505112;-31
2023/03/28 09:48:54;;;;;;;4.20;1.20;;;;;;;-128.00;-1.00;-1.00;18504;288;7504151;-30
2023/03/28 09:51:20;;;;;;;1.80;1.20;;;;;;;-128.00;-1.00;-1.00;18448;297;7506007;-34
2023/03/28 09:53:47;;;;;;;0.60;0.50;;;;;;;-128.00;-1.00;-1.00;18472;295;7504553;-33
2023/03/28 09:56:26;;;;;;;1.30;0.70;;;;;;;-128.00;-1.00;-1.00;18512;288;7506049;-29
2023/03/28 09:58:56;;;;;;;2.20;0.90;;;;;;;-128.00;-1.00;-1.00;18470;297;7504290;-33
2023/03/28 10:01:32;;;;;;;1.30;1.00;;;;;;;-128.00;-1.00;-1.00;18459;296;7505242;-33
2023/03/28 10:03:59;;;;;;;6.10;3.20;;;;;;;-128.00;-1.00;-1.00;18482;296;7504510;-35
2023/03/28 10:06:30;;;;;;;10.50;8.30;;;;;;;-128.00;-1.00;-1.00;18456;303;7506885;-31
2023/03/28 10:09:09;;;;;;;2.00;1.30;;;;;;;-128.00;-1.00;-1.00;18498;288;7506049;-35
2023/03/28 10:11:49;;;;;;;2.10;1.20;;;;;;;-128.00;-1.00;-1.00;18465;312;7505827;-35
2023/03/28 10:14:39;;;;;;;1.30;1.00;;;;;;;-128.00;-1.00;-1.00;18478;296;7505259;-34
2023/03/28 10:17:17;;;;;;;0.30;0.30;;;;;;;-128.00;-1.00;-1.00;18486;296;7506037;-33
2023/03/28 10:19:43;;;;;;;1.30;0.40;;;;;;;-128.00;-1.00;-1.00;18493;295;7505811;-30
2023/03/28 10:22:14;;;;;;;0.60;0.20;;;;;;;-128.00;-1.00;-1.00;18485;296;7504827;-33
2023/03/28 10:24:40;;;;;;;1.80;0.90;;;;;;;-128.00;-1.00;-1.00;18487;288;7505595;-30
2023/03/28 10:27:12;;;;;;;2.40;2.20;;;;;;;-128.00;-1.00;-1.00;18441;310;7506182;-30
2023/03/28 10:29:38;;;;;;;1.40;0.60;;;;;;;-128.00;-1.00;-1.00;18521;296;7504591;-36
2023/03/28 10:32:04;;;;;;;1.20;0.50;;;;;;;-128.00;-1.00;-1.00;18493;288;7506064;-31
2023/03/28 10:34:32;;;;;;;2.80;0.80;;;;;;;-128.00;-1.00;-1.00;18467;288;7504811;-34
2023/03/28 10:36:57;;;;;;;1.90;1.00;;;;;;;-128.00;-1.00;-1.00;18475;284;7504773;-30
2023/03/28 10:39:27;;;;;;;2.00;0.90;;;;;;;-128.00;-1.00;-1.00;18878;295;7504933;-31
2023/03/28 10:41:55;;;;;;;1.50;0.80;;;;;;;-128.00;-1.00;-1.00;18488;296;7504983;-34
2023/03/28 10:44:27;;;;;;;1.30;0.70;;;;;;;-128.00;-1.00;-1.00;18440;299;7504845;-30
2023/03/28 10:46:54;;;;;;;0.80;0.80;;;;;;;-128.00;-1.00;-1.00;18488;295;7504934;-34
2023/03/28 10:49:20;;;;;;;1.00;0.90;;;;;;;-128.00;-1.00;-1.00;18445;295;7504503;-36
2023/03/28 10:51:46;;;;;;;1.30;0.50;;;;;;;-128.00;-1.00;-1.00;18461;296;7505037;-32
2023/03/28 10:54:24;;;;;;;0.80;0.70;;;;;;;-128.00;-1.00;-1.00;18462;297;7504988;-31
2023/03/28 10:56:56;;;;;;;0.70;0.30;;;;;;;-128.00;-1.00;-1.00;18472;296;7504633;-34
2023/03/28 10:59:40;;;;;;;1.10;0.80;;;;;;;-128.00;-1.00;-1.00;18468;297;7505070;-29
2023/03/28 11:02:30;;;;;;;4.40;0.90;;;;;;;-128.00;-1.00;-1.00;18477;288;7504410;-30
2023/03/28 11:45:45;;;;;;;3.60;0.50;;;;;;;0.13;87.28;99608.85;100850;295;559522;-31
2023/03/28 11:48:25;;;;;;;2.30;0.90;;;;;;;-128.00;-1.00;-1.00;97304;296;1005553;-29
2023/03/28 11:51:12;;;;;;;1.20;0.70;;;;;;;-128.00;-1.00;-1.00;97649;295;1004715;-30
2023/03/28 11:53:43;;;;;;;1.50;1.30;;;;;;;-128.00;-1.00;-1.00;97567;284;1004284;-35
2023/03/28 11:56:29;;;;;;;1.90;0.60;;;;;;;-128.00;-1.00;-1.00;97656;296;1004607;-34
2023/03/28 11:58:59;;;;;;;2.70;2.40;;;;;;;-128.00;-1.00;-1.00;97715;288;1003035;-31
2023/03/28 12:01:32;;;;;;;2.40;0.40;;;;;;;-128.00;-1.00;-1.00;97890;295;1003180;-36
2023/03/28 12:04:06;;;;;;;1.70;1.00;;;;;;;-128.00;-1.00;-1.00;98046;295;1002552;-30
2023/03/28 12:06:38;;;;;;;;;;;;;;;-128.00;-1.00;-1.00;97803;295;1003804;-34
2023/03/28 12:09:22;;;;;;;1.10;0.40;;;;;;;-128.00;-1.00;-1.00;97862;295;1003084;-34
2023/03/28 12:11:55;;;;;;;1.50;0.80;;;;;;;-128.00;-1.00;-1.00;97905;295;1003137;-31
2023/03/28 12:14:45;;;;;;;0.60;0.30;;;;;;;-128.00;-1.00;-1.00;97863;295;1003636;-33
2023/03/28 12:17:24;;;;;;;0.60;0.30;;;;;;;-128.00;-1.00;-1.00;97907;295;1003633;-33
2023/03/28 12:19:50;;;;;;;0.50;0.40;;;;;;;-128.00;-1.00;-1.00;97887;295;1003319;-29
2023/03/28 12:22:31;;;;;;;0.40;0.20;;;;;;;-128.00;-1.00;-1.00;97754;295;1003163;-33
2023/03/28 12:25:05;;;;;;;0.70;0.50;;;;;;;-128.00;-1.00;-1.00;97807;295;1002866;-33
2023/03/28 12:27:46;;;;;;;1.20;0.60;;;;;;;-128.00;-1.00;-1.00;97815;284;1002950;-28
2023/03/28 12:30:24;;;;;;;0.60;0.40;;;;;;;-128.00;-1.00;-1.00;97876;295;1003595;-33
2023/03/28 12:33:07;;;;;;;0.70;0.50;;;;;;;-128.00;-1.00;-1.00;97856;295;1005152;-29
2023/03/28 12:35:50;;;;;;;0.80;0.40;;;;;;;-128.00;-1.00;-1.00;97847;295;1003382;-34
2023/03/28 12:38:31;;;;;;;0.80;0.40;;;;;;;-128.00;-1.00;-1.00;97973;295;1003149;-34
2023/03/28 12:41:00;;;;;;;1.50;0.70;;;;;;;-128.00;-1.00;-1.00;97771;295;1003784;-33
2023/03/28 12:43:44;;;;;;;1.00;0.50;;;;;;;-128.00;-1.00;-1.00;97937;295;1003137;-33
2023/03/28 12:46:20;;;;;;;0.50;0.50;;;;;;;-128.00;-1.00;-1.00;98012;284;1003892;-29
2023/03/28 12:48:54;;;;;;;0.60;0.50;;;;;;;-128.00;-1.00;-1.00;97925;295;1003944;-33
2023/03/28 12:51:36;;;;;;;2.80;1.40;;;;;;;-128.00;-1.00;-1.00;97955;295;1003498;-30
2023/03/28 12:54:22;;;;;;;1.10;0.60;;;;;;;-128.00;-1.00;-1.00;97940;295;1004104;-28
2023/03/28 12:57:01;;;;;;;1.30;0.60;;;;;;;-128.00;-1.00;-1.00;98024;295;1003571;-34
2023/03/28 12:59:46;;;;;;;4.40;1.00;;;;;;;-128.00;-1.00;-1.00;98014;295;1003231;-33
2023/03/28 13:02:26;;;;;;;1.20;0.60;;;;;;;-128.00;-1.00;-1.00;97999;295;1003327;-35
2023/03/28 13:05:12;;;;;;;1.30;0.40;;;;;;;-128.00;-1.00;-1.00;97931;296;1002818;-31
2023/03/28 13:08:01;;;;;;;1.20;0.50;;;;;;;-128.00;-1.00;-1.00;97971;295;1003371;-29
2023/03/28 13:10:47;;;;;;;0.60;0.40;;;;;;;-128.00;-1.00;-1.00;97904;296;1003217;-29